createdAt,value
2019-02-21T00:00:25.747Z,6.95
2019-02-21T00:01:25.742Z,6.82
2019-02-21T00:02:25.738Z,6.87
2019-02-21T00:03:25.729Z,6.92
2019-02-21T00:04:25.720Z,6.84
2019-02-21T00:05:25.715Z,6.81
2019-02-21T00:06:25.709Z,6.88
2019-02-21T00:07:25.705Z,6.84
2019-02-21T00:08:25.696Z,6.87
2019-02-21T00:09:25.690Z,6.79
2019-02-21T00:10:25.686Z,6.77
2019-02-21T00:11:25.679Z,6.75
2019-02-21T00:12:25.671Z,6.74
2019-02-21T00:13:25.663Z,6.70
2019-02-21T00:14:25.659Z,6.63
2019-02-21T00:15:25.652Z,6.57
2019-02-21T00:16:25.659Z,6.70
2019-02-21T00:17:25.639Z,6.64
2019-02-21T00:18:25.633Z,6.70
2019-02-21T00:19:25.627Z,6.62
2019-02-21T00:20:25.618Z,6.62
2019-02-21T00:21:25.615Z,6.62
2019-02-21T00:22:25.609Z,6.52
2019-02-21T00:23:25.601Z,6.63
2019-02-21T00:24:25.596Z,6.56
2019-02-21T00:25:25.588Z,6.60
2019-02-21T00:26:25.582Z,6.51
2019-02-21T00:27:25.575Z,6.48
2019-02-21T00:28:25.570Z,6.48
2019-02-21T00:29:25.565Z,6.49
2019-02-21T00:30:34.913Z,6.33
2019-02-21T00:31:25.551Z,6.30
2019-02-21T00:32:25.549Z,6.38
2019-02-21T00:33:25.540Z,6.24
2019-02-21T00:34:25.540Z,6.28
2019-02-21T00:35:25.524Z,6.17
2019-02-21T00:36:25.517Z,6.26
2019-02-21T00:37:25.510Z,6.26
2019-02-21T00:38:25.509Z,6.22
2019-02-21T00:39:25.501Z,6.16
2019-02-21T00:40:25.491Z,6.17
2019-02-21T00:41:25.485Z,6.12
2019-02-21T00:42:25.479Z,6.12
2019-02-21T00:43:25.476Z,6.16
2019-02-21T00:44:25.465Z,6.14
2019-02-21T00:45:25.460Z,6.09
2019-02-21T00:46:25.452Z,6.09
2019-02-21T00:47:25.448Z,5.98
2019-02-21T00:48:25.441Z,5.97
2019-02-21T00:49:25.433Z,5.98
2019-02-21T00:50:25.427Z,5.86
2019-02-21T00:51:25.433Z,5.76
2019-02-21T00:52:25.413Z,5.72
2019-02-21T00:53:25.408Z,5.62
2019-02-21T00:54:25.402Z,5.53
2019-02-21T00:55:27.709Z,5.51
2019-02-21T00:56:25.391Z,5.39
2019-02-21T00:57:25.381Z,5.43
2019-02-21T00:58:25.376Z,5.32
2019-02-21T00:59:25.372Z,5.28
2019-02-21T01:00:25.363Z,5.21
2019-02-21T01:01:25.360Z,5.18
2019-02-21T01:02:25.350Z,5.12
2019-02-21T01:03:25.344Z,5.11
2019-02-21T01:04:25.338Z,5.05
2019-02-21T01:05:25.329Z,4.97
2019-02-21T01:06:25.323Z,4.99
2019-02-21T01:07:25.318Z,4.89
2019-02-21T01:08:25.309Z,4.82
2019-02-21T01:09:25.305Z,4.77
2019-02-21T01:10:25.299Z,4.84
2019-02-21T01:11:25.292Z,4.70
2019-02-21T01:12:25.285Z,4.70
2019-02-21T01:13:25.277Z,4.66
2019-02-21T01:14:25.334Z,4.56
2019-02-21T01:15:25.264Z,4.62
2019-02-21T01:16:25.258Z,4.59
2019-02-21T01:17:25.250Z,4.50
2019-02-21T01:18:25.246Z,4.58
2019-02-21T01:19:25.238Z,4.48
2019-02-21T01:20:25.231Z,4.44
2019-02-21T01:21:25.224Z,4.37
2019-02-21T01:22:25.217Z,4.32
2019-02-21T01:23:25.215Z,4.30
2019-02-21T01:24:25.232Z,4.34
2019-02-21T01:25:25.205Z,4.34
2019-02-21T01:26:25.192Z,4.32
2019-02-21T01:27:25.186Z,4.32
2019-02-21T01:28:25.178Z,4.31
2019-02-21T01:29:25.172Z,4.19
2019-02-21T01:30:25.164Z,4.23
2019-02-21T01:31:25.157Z,4.17
2019-02-21T01:32:25.150Z,4.01
2019-02-21T01:33:25.143Z,4.04
2019-02-21T01:34:25.142Z,4.02
2019-02-21T01:35:25.130Z,4.02
2019-02-21T01:36:25.124Z,4.06
2019-02-21T01:37:25.117Z,4.02
2019-02-21T01:38:25.110Z,4.05
2019-02-21T01:39:25.104Z,4.10
2019-02-21T01:40:25.095Z,4.06
2019-02-21T01:41:25.089Z,3.94
2019-02-21T01:42:25.083Z,4.01
2019-02-21T01:43:25.075Z,3.96
2019-02-21T01:44:25.066Z,3.98
2019-02-21T01:45:25.063Z,3.98
2019-02-21T01:46:25.054Z,3.96
2019-02-21T01:47:25.048Z,4.08
2019-02-21T01:48:25.042Z,4.05
2019-02-21T01:49:25.032Z,4.02
2019-02-21T01:50:25.027Z,4.05
2019-02-21T01:51:25.020Z,3.98
2019-02-21T01:52:25.011Z,3.99
2019-02-21T01:53:25.004Z,3.92
2019-02-21T01:54:24.997Z,3.96
2019-02-21T01:55:24.990Z,3.98
2019-02-21T01:56:24.983Z,3.98
2019-02-21T01:57:24.976Z,3.99
2019-02-21T01:58:24.971Z,3.99
2019-02-21T01:59:24.963Z,3.95
2019-02-21T02:00:24.956Z,3.96
2019-02-21T02:01:24.954Z,3.94
2019-02-21T02:02:24.941Z,3.88
2019-02-21T02:03:24.934Z,3.96
2019-02-21T02:04:24.927Z,3.96
2019-02-21T02:05:24.918Z,3.95
2019-02-21T02:06:24.915Z,3.96
2019-02-21T02:07:24.904Z,3.98
2019-02-21T02:08:24.896Z,3.96
2019-02-21T02:09:24.889Z,4.01
2019-02-21T02:10:24.882Z,4.02
2019-02-21T02:11:24.875Z,4.02
2019-02-21T02:12:24.868Z,4.02
2019-02-21T02:13:25.088Z,4.17
2019-02-21T02:14:24.857Z,4.16
2019-02-21T02:15:24.847Z,4.22
2019-02-21T02:16:24.839Z,4.24
2019-02-21T02:17:24.831Z,4.17
2019-02-21T02:18:24.825Z,4.22
2019-02-21T02:19:24.818Z,4.23
2019-02-21T02:20:24.810Z,4.23
2019-02-21T02:21:24.802Z,4.26
2019-02-21T02:22:24.795Z,4.28
2019-02-21T02:23:24.789Z,4.37
2019-02-21T02:24:24.783Z,4.55
2019-02-21T02:25:24.773Z,4.62
2019-02-21T02:26:24.769Z,4.66
2019-02-21T02:27:24.760Z,4.60
2019-02-21T02:28:24.758Z,4.78
2019-02-21T02:29:24.785Z,4.73
2019-02-21T02:30:24.849Z,4.92
2019-02-21T02:31:24.734Z,4.99
2019-02-21T02:32:24.725Z,5.10
2019-02-21T02:33:24.718Z,5.21
2019-02-21T02:34:24.713Z,5.33
2019-02-21T02:35:24.716Z,5.29
2019-02-21T02:36:24.695Z,5.35
2019-02-21T02:37:24.689Z,5.51
2019-02-21T02:38:24.684Z,5.65
2019-02-21T02:39:24.676Z,5.82
2019-02-21T02:40:24.668Z,5.86
2019-02-21T02:41:24.661Z,5.87
2019-02-21T02:42:24.657Z,5.94
2019-02-21T02:43:24.649Z,6.02
2019-02-21T02:44:24.640Z,6.09
2019-02-21T02:45:24.636Z,6.12
2019-02-21T02:46:24.629Z,6.09
2019-02-21T02:47:24.621Z,6.16
2019-02-21T02:48:24.615Z,6.12
2019-02-21T02:49:24.615Z,6.16
2019-02-21T02:50:24.600Z,6.11
2019-02-21T02:51:24.596Z,6.24
2019-02-21T02:52:24.611Z,6.24
2019-02-21T02:53:24.579Z,6.26
2019-02-21T02:54:24.572Z,6.48
2019-02-21T02:55:24.566Z,6.42
2019-02-21T02:56:24.558Z,6.42
2019-02-21T02:57:24.552Z,6.38
2019-02-21T02:58:24.547Z,6.51
2019-02-21T02:59:24.539Z,6.45
2019-02-21T03:00:24.531Z,6.59
2019-02-21T03:01:34.333Z,6.59
2019-02-21T03:02:24.519Z,6.60
2019-02-21T03:03:24.513Z,6.45
2019-02-21T03:04:24.536Z,6.48
2019-02-21T03:05:24.500Z,6.42
2019-02-21T03:06:24.493Z,6.42
2019-02-21T03:07:24.494Z,6.44
2019-02-21T03:08:24.477Z,6.44
2019-02-21T03:09:24.475Z,6.48
2019-02-21T03:10:24.464Z,6.62
2019-02-21T03:11:24.459Z,6.48
2019-02-21T03:12:24.453Z,6.57
2019-02-21T03:13:24.444Z,6.49
2019-02-21T03:14:24.439Z,6.49
2019-02-21T03:15:24.432Z,6.49
2019-02-21T03:16:24.432Z,6.42
2019-02-21T03:17:24.431Z,6.42
2019-02-21T03:18:24.412Z,6.36
2019-02-21T03:19:24.405Z,6.42
2019-02-21T03:20:24.400Z,6.39
2019-02-21T03:21:24.391Z,6.28
2019-02-21T03:22:24.385Z,6.31
2019-02-21T03:23:24.381Z,6.28
2019-02-21T03:24:24.371Z,6.22
2019-02-21T03:25:24.367Z,6.28
2019-02-21T03:26:24.360Z,6.24
2019-02-21T03:27:24.353Z,6.30
2019-02-21T03:28:24.345Z,6.17
2019-02-21T03:29:24.339Z,6.14
2019-02-21T03:30:24.334Z,6.14
2019-02-21T03:31:24.327Z,6.08
2019-02-21T03:32:24.324Z,6.01
2019-02-21T03:33:24.313Z,5.97
2019-02-21T03:34:24.310Z,5.93
2019-02-21T03:35:24.308Z,5.97
2019-02-21T03:36:24.316Z,5.89
2019-02-21T03:37:24.288Z,5.87
2019-02-21T03:38:24.283Z,5.93
2019-02-21T03:39:24.274Z,5.87
2019-02-21T03:40:24.275Z,5.76
2019-02-21T03:41:24.262Z,5.82
2019-02-21T03:42:24.253Z,5.87
2019-02-21T03:43:24.253Z,5.84
2019-02-21T03:44:24.240Z,5.84
2019-02-21T03:45:24.232Z,5.76
2019-02-21T03:46:24.227Z,5.75
2019-02-21T03:47:24.221Z,5.65
2019-02-21T03:48:24.214Z,5.57
2019-02-21T03:49:24.207Z,5.57
2019-02-21T03:50:24.200Z,5.56
2019-02-21T03:51:24.199Z,5.50
2019-02-21T03:52:24.187Z,5.44
2019-02-21T03:53:24.179Z,5.47
2019-02-21T03:54:24.175Z,5.43
2019-02-21T03:55:24.167Z,5.35
2019-02-21T03:56:24.160Z,5.44
2019-02-21T03:57:24.154Z,5.39
2019-02-21T03:58:24.147Z,5.38
2019-02-21T03:59:24.142Z,5.36
2019-02-21T04:00:24.136Z,5.28
2019-02-21T04:01:24.126Z,5.28
2019-02-21T04:02:24.122Z,5.15
2019-02-21T04:03:24.113Z,5.20
2019-02-21T04:04:24.109Z,5.10
2019-02-21T04:05:24.099Z,5.08
2019-02-21T04:06:24.095Z,5.15
2019-02-21T04:07:24.089Z,5.11
2019-02-21T04:08:24.081Z,5.12
2019-02-21T04:09:24.076Z,5.10
2019-02-21T04:10:24.067Z,5.32
2019-02-21T04:11:24.060Z,5.38
2019-02-21T04:12:24.054Z,5.46
2019-02-21T04:13:24.048Z,5.41
2019-02-21T04:14:24.047Z,5.35
2019-02-21T04:15:24.034Z,5.48
2019-02-21T04:16:24.026Z,5.48
2019-02-21T04:17:24.022Z,5.57
2019-02-21T04:18:24.014Z,5.53
2019-02-21T04:19:24.007Z,5.65
2019-02-21T04:20:24.012Z,5.53
2019-02-21T04:21:23.999Z,5.59
2019-02-21T04:22:23.988Z,5.50
2019-02-21T04:23:23.980Z,5.48
2019-02-21T04:24:23.977Z,5.43
2019-02-21T04:25:23.967Z,5.48
2019-02-21T04:26:23.961Z,5.50
2019-02-21T04:27:23.955Z,5.46
2019-02-21T04:28:23.946Z,5.38
2019-02-21T04:29:23.938Z,5.36
2019-02-21T04:30:23.934Z,5.39
2019-02-21T04:31:23.925Z,5.39
2019-02-21T04:32:23.918Z,5.39
2019-02-21T04:33:23.912Z,5.36
2019-02-21T04:34:23.906Z,5.38
2019-02-21T04:35:23.900Z,5.39
2019-02-21T04:36:23.901Z,5.43
2019-02-21T04:37:23.888Z,5.39
2019-02-21T04:38:23.879Z,5.41
2019-02-21T04:39:23.872Z,5.41
2019-02-21T04:40:23.865Z,5.36
2019-02-21T04:41:23.858Z,5.39
2019-02-21T04:42:23.853Z,5.35
2019-02-21T04:43:23.845Z,5.33
2019-02-21T04:44:23.841Z,5.47
2019-02-21T04:45:23.831Z,5.41
2019-02-21T04:46:23.824Z,5.39
2019-02-21T04:47:23.817Z,5.32
2019-02-21T04:48:23.822Z,5.36
2019-02-21T04:49:23.805Z,5.29
2019-02-21T04:50:23.797Z,5.11
2019-02-21T04:51:23.791Z,5.23
2019-02-21T04:52:23.797Z,5.20
2019-02-21T04:53:23.780Z,5.14
2019-02-21T04:54:23.770Z,5.05
2019-02-21T04:55:23.764Z,5.17
2019-02-21T04:56:23.757Z,5.10
2019-02-21T04:57:23.748Z,5.15
2019-02-21T04:58:23.743Z,5.02
2019-02-21T04:59:23.737Z,5.00
2019-02-21T05:00:23.729Z,4.86
2019-02-21T05:01:23.721Z,4.84
2019-02-21T05:02:29.201Z,4.73
2019-02-21T05:03:23.710Z,4.80
2019-02-21T05:04:23.702Z,4.80
2019-02-21T05:05:23.727Z,4.73
2019-02-21T05:06:23.688Z,4.73
2019-02-21T05:07:23.683Z,4.56
2019-02-21T05:08:23.675Z,4.45
2019-02-21T05:09:23.668Z,4.48
2019-02-21T05:10:23.663Z,4.45
2019-02-21T05:11:23.656Z,4.41
2019-02-21T05:12:23.646Z,4.45
2019-02-21T05:13:23.640Z,4.38
2019-02-21T05:14:23.641Z,4.45
2019-02-21T05:15:23.627Z,4.49
2019-02-21T05:16:23.620Z,4.44
2019-02-21T05:17:23.614Z,4.49
2019-02-21T05:18:23.607Z,4.48
2019-02-21T05:19:23.599Z,4.45
2019-02-21T05:20:23.594Z,4.49
2019-02-21T05:21:23.589Z,4.50
2019-02-21T05:22:23.580Z,4.45
2019-02-21T05:23:23.573Z,4.48
2019-02-21T05:24:23.566Z,4.52
2019-02-21T05:25:23.558Z,4.41
2019-02-21T05:26:23.632Z,4.40
2019-02-21T05:27:23.545Z,4.37
2019-02-21T05:28:23.539Z,4.48
2019-02-21T05:29:23.531Z,4.48
2019-02-21T05:30:23.523Z,4.40
2019-02-21T05:31:23.523Z,4.45
2019-02-21T05:32:23.511Z,4.37
2019-02-21T05:33:23.502Z,4.45
2019-02-21T05:34:23.496Z,4.41
2019-02-21T05:35:23.498Z,4.41
2019-02-21T05:36:23.482Z,4.38
2019-02-21T05:37:23.477Z,4.38
2019-02-21T05:38:23.469Z,4.34
2019-02-21T05:39:23.463Z,4.28
2019-02-21T05:40:23.455Z,4.19
2019-02-21T05:41:23.448Z,4.22
2019-02-21T05:42:23.444Z,4.23
2019-02-21T05:43:23.433Z,4.19
2019-02-21T05:44:23.426Z,4.16
2019-02-21T05:45:23.419Z,4.01
2019-02-21T05:46:23.416Z,4.02
2019-02-21T05:47:23.405Z,4.04
2019-02-21T05:48:23.397Z,3.94
2019-02-21T05:49:23.392Z,3.94
2019-02-21T05:50:23.403Z,4.04
2019-02-21T05:51:23.378Z,3.98
2019-02-21T05:52:23.370Z,3.98
2019-02-21T05:53:23.362Z,3.99
2019-02-21T05:54:23.357Z,4.01
2019-02-21T05:55:23.349Z,3.95
2019-02-21T05:56:23.342Z,3.96
2019-02-21T05:57:23.334Z,3.95
2019-02-21T05:58:23.328Z,3.81
2019-02-21T05:59:23.322Z,3.78
2019-02-21T06:00:23.312Z,3.81
2019-02-21T06:01:23.305Z,3.80
2019-02-21T06:02:23.302Z,3.81
2019-02-21T06:03:23.292Z,3.91
2019-02-21T06:04:23.287Z,3.78
2019-02-21T06:05:23.279Z,3.77
2019-02-21T06:06:23.270Z,3.81
2019-02-21T06:07:23.264Z,3.84
2019-02-21T06:08:23.255Z,3.84
2019-02-21T06:09:23.248Z,3.80
2019-02-21T06:10:23.243Z,3.80
2019-02-21T06:11:23.236Z,3.76
2019-02-21T06:12:33.058Z,3.73
2019-02-21T06:13:23.220Z,3.76
2019-02-21T06:14:23.214Z,3.77
2019-02-21T06:15:23.236Z,3.77
2019-02-21T06:16:23.197Z,3.69
2019-02-21T06:17:23.190Z,3.66
2019-02-21T06:18:23.183Z,3.70
2019-02-21T06:19:23.178Z,3.66
2019-02-21T06:20:23.169Z,3.69
2019-02-21T06:21:23.163Z,3.70
2019-02-21T06:22:23.155Z,3.74
2019-02-21T06:23:24.979Z,3.66
2019-02-21T06:24:23.141Z,3.68
2019-02-21T06:25:23.133Z,3.77
2019-02-21T06:26:23.125Z,3.70
2019-02-21T06:27:23.119Z,3.73
2019-02-21T06:28:23.110Z,3.69
2019-02-21T06:29:23.109Z,3.66
2019-02-21T06:30:23.096Z,3.65
2019-02-21T06:31:23.089Z,3.69
2019-02-21T06:32:23.081Z,3.69
2019-02-21T06:33:23.075Z,3.69
2019-02-21T06:34:23.068Z,3.65
2019-02-21T06:35:23.061Z,3.65
2019-02-21T06:36:23.052Z,3.66
2019-02-21T06:37:23.044Z,3.63
2019-02-21T06:38:23.038Z,3.58
2019-02-21T06:39:24.986Z,3.55
2019-02-21T06:40:23.043Z,3.50
2019-02-21T06:41:23.014Z,3.51
2019-02-21T06:42:23.008Z,3.42
2019-02-21T06:43:23.005Z,3.50
2019-02-21T06:44:22.994Z,3.48
2019-02-21T06:45:22.999Z,3.44
2019-02-21T06:46:22.978Z,3.47
2019-02-21T06:47:22.972Z,3.45
2019-02-21T06:48:22.965Z,3.40
2019-02-21T06:49:32.130Z,3.31
2019-02-21T06:50:26.727Z,3.41
2019-02-21T06:51:22.940Z,3.32
2019-02-21T06:52:22.933Z,3.34
2019-02-21T06:53:22.926Z,3.31
2019-02-21T06:54:22.919Z,3.31
2019-02-21T06:55:22.911Z,3.32
2019-02-21T06:56:22.903Z,3.32
2019-02-21T06:57:22.897Z,3.29
2019-02-21T06:58:22.889Z,3.32
2019-02-21T06:59:23.740Z,3.37
2019-02-21T07:00:22.874Z,3.32
2019-02-21T07:01:26.997Z,3.34
2019-02-21T07:02:22.862Z,3.45
2019-02-21T07:03:22.851Z,3.45
2019-02-21T07:04:22.846Z,3.48
2019-02-21T07:05:22.836Z,3.51
2019-02-21T07:06:31.589Z,3.55
2019-02-21T07:07:22.821Z,3.56
2019-02-21T07:08:25.083Z,3.55
2019-02-21T07:09:22.806Z,3.53
2019-02-21T07:10:22.799Z,3.51
2019-02-21T07:11:24.722Z,3.66
2019-02-21T07:12:22.783Z,3.69
2019-02-21T07:13:26.667Z,3.73
2019-02-21T07:14:22.786Z,3.69
2019-02-21T07:15:22.762Z,3.66
2019-02-21T07:16:22.755Z,3.68
2019-02-21T07:17:22.745Z,3.68
2019-02-21T07:18:22.742Z,3.74
2019-02-21T07:19:22.749Z,3.83
2019-02-21T07:20:22.724Z,3.80
2019-02-21T07:21:22.717Z,3.96
2019-02-21T07:22:22.729Z,3.95
2019-02-21T07:23:22.703Z,4.04
2019-02-21T07:24:22.695Z,4.05
2019-02-21T07:25:22.687Z,4.14
2019-02-21T07:26:22.680Z,4.24
2019-02-21T07:27:22.673Z,4.23
2019-02-21T07:28:22.665Z,4.40
2019-02-21T07:29:22.663Z,4.34
2019-02-21T07:30:23.211Z,4.45
2019-02-21T07:31:28.703Z,4.58
2019-02-21T07:32:22.637Z,4.68
2019-02-21T07:33:28.337Z,4.78
2019-02-21T07:34:22.624Z,4.87
2019-02-21T07:35:22.616Z,4.77
2019-02-21T07:36:22.608Z,4.87
2019-02-21T07:37:22.602Z,5.00
2019-02-21T07:38:22.598Z,5.11
2019-02-21T07:39:22.607Z,5.33
2019-02-21T07:40:22.581Z,5.36
2019-02-21T07:41:22.574Z,5.56
2019-02-21T07:42:22.570Z,5.72
2019-02-21T07:43:24.854Z,5.80
2019-02-21T07:44:22.552Z,5.97
2019-02-21T07:45:22.548Z,5.98
2019-02-21T07:46:22.573Z,6.17
2019-02-21T07:47:22.534Z,6.20
2019-02-21T07:48:22.523Z,6.22
2019-02-21T07:49:22.523Z,6.20
2019-02-21T07:50:23.131Z,6.27
2019-02-21T07:51:22.506Z,6.24
2019-02-21T07:52:22.499Z,6.38
2019-02-21T07:53:22.492Z,6.39
2019-02-21T07:54:22.487Z,6.44
2019-02-21T07:55:22.479Z,6.45
2019-02-21T07:56:22.475Z,6.54
2019-02-21T07:57:22.466Z,6.57
2019-02-21T07:58:22.462Z,6.54
2019-02-21T07:59:22.451Z,6.57
2019-02-21T08:00:22.450Z,6.56
2019-02-21T08:01:22.438Z,6.66
2019-02-21T08:02:22.432Z,6.66
2019-02-21T08:03:30.263Z,6.63
2019-02-21T08:04:22.494Z,6.78
2019-02-21T08:05:23.711Z,6.74
2019-02-21T08:06:22.407Z,6.75
2019-02-21T08:07:22.399Z,6.70
2019-02-21T08:08:22.394Z,6.85
2019-02-21T08:09:22.388Z,6.82
2019-02-21T08:10:32.806Z,6.84
2019-02-21T08:11:22.374Z,6.89
2019-02-21T08:12:23.286Z,6.92
2019-02-21T08:13:22.361Z,6.97
2019-02-21T08:14:22.354Z,6.93
2019-02-21T08:15:22.349Z,6.97
2019-02-21T08:16:22.342Z,7.06
2019-02-21T08:17:22.337Z,6.89
2019-02-21T08:18:22.328Z,7.07
2019-02-21T08:19:22.324Z,7.13
2019-02-21T08:20:33.235Z,7.00
2019-02-21T08:21:22.310Z,7.03
2019-02-21T08:22:22.305Z,7.00
2019-02-21T08:23:22.299Z,7.10
2019-02-21T08:24:22.291Z,7.21
2019-02-21T08:25:22.290Z,7.18
2019-02-21T08:26:22.352Z,7.23
2019-02-21T08:27:22.275Z,7.28
2019-02-21T08:28:22.268Z,7.29
2019-02-21T08:29:22.262Z,7.28
2019-02-21T08:30:22.256Z,7.39
2019-02-21T08:31:22.250Z,7.42
2019-02-21T08:32:22.244Z,7.48
2019-02-21T08:33:22.239Z,7.53
2019-02-21T08:34:22.232Z,7.61
2019-02-21T08:35:22.228Z,7.60
2019-02-21T08:36:22.220Z,7.67
2019-02-21T08:37:22.214Z,7.60
2019-02-21T08:38:22.209Z,7.66
2019-02-21T08:39:22.204Z,7.70
2019-02-21T08:40:24.913Z,7.82
2019-02-21T08:41:22.191Z,7.75
2019-02-21T08:42:22.187Z,7.76
2019-02-21T08:43:22.178Z,7.83
2019-02-21T08:44:22.175Z,7.82
2019-02-21T08:45:22.170Z,8.01
2019-02-21T08:46:22.162Z,8.03
2019-02-21T08:47:22.157Z,8.03
2019-02-21T08:48:22.152Z,8.09
2019-02-21T08:49:22.145Z,8.24
2019-02-21T08:50:22.464Z,8.33
2019-02-21T08:51:22.133Z,8.33
2019-02-21T08:52:22.128Z,8.41
2019-02-21T08:53:22.122Z,8.41
2019-02-21T08:54:22.117Z,8.42
2019-02-21T08:55:22.116Z,8.38
2019-02-21T08:56:22.106Z,8.48
2019-02-21T08:57:22.104Z,8.56
2019-02-21T08:58:22.096Z,8.48
2019-02-21T08:59:22.091Z,8.48
2019-02-21T09:00:22.090Z,8.44
2019-02-21T09:01:22.082Z,8.41
2019-02-21T09:02:22.074Z,8.31
2019-02-21T09:03:22.070Z,8.44
2019-02-21T09:04:27.298Z,8.28
2019-02-21T09:05:22.058Z,8.38
2019-02-21T09:06:24.477Z,8.37
2019-02-21T09:07:22.048Z,8.45
2019-02-21T09:08:32.673Z,8.31
2019-02-21T09:09:22.038Z,8.31
2019-02-21T09:10:22.033Z,8.30
2019-02-21T09:11:22.032Z,8.33
2019-02-21T09:12:22.023Z,8.30
2019-02-21T09:13:23.887Z,8.27
2019-02-21T09:14:22.011Z,8.33
2019-02-21T09:15:22.005Z,8.37
2019-02-21T09:16:21.999Z,8.51
2019-02-21T09:17:22.087Z,8.58
2019-02-21T09:18:21.992Z,8.70
2019-02-21T09:19:21.985Z,8.69
2019-02-21T09:20:21.977Z,8.84
2019-02-21T09:21:21.975Z,9.02
2019-02-21T09:22:21.968Z,9.13
2019-02-21T09:23:21.964Z,9.23
2019-02-21T09:24:37.876Z,9.21
2019-02-21T09:25:21.952Z,9.13
2019-02-21T09:26:21.952Z,9.02
2019-02-21T09:27:21.943Z,8.92
2019-02-21T09:28:21.937Z,8.99
2019-02-21T09:29:21.932Z,8.97
2019-02-21T09:30:21.935Z,9.00
2019-02-21T09:31:21.924Z,8.99
2019-02-21T09:32:21.982Z,8.97
2019-02-21T09:33:21.969Z,8.97
2019-02-21T09:34:21.909Z,8.99
2019-02-21T09:35:21.905Z,8.85
2019-02-21T09:36:21.900Z,8.92
2019-02-21T09:37:21.895Z,8.85
2019-02-21T09:38:21.889Z,8.95
2019-02-21T09:39:21.884Z,8.95
2019-02-21T09:40:21.879Z,8.97
2019-02-21T09:41:21.872Z,8.99
2019-02-21T09:42:21.868Z,9.08
2019-02-21T09:43:21.863Z,9.06
2019-02-21T09:44:21.858Z,9.16
2019-02-21T09:45:21.854Z,9.44
2019-02-21T09:46:21.850Z,9.54
2019-02-21T09:47:21.848Z,9.62
2019-02-21T09:48:21.838Z,9.65
2019-02-21T09:49:21.834Z,9.55
2019-02-21T09:50:21.830Z,9.56
2019-02-21T09:51:21.826Z,9.56
2019-02-21T09:52:21.819Z,9.40
2019-02-21T09:53:21.816Z,9.46
2019-02-21T09:54:21.810Z,9.50
2019-02-21T09:55:21.809Z,9.40
2019-02-21T09:56:29.857Z,9.43
2019-02-21T09:57:21.799Z,9.55
2019-02-21T09:58:21.794Z,9.64
2019-02-21T09:59:21.792Z,9.56
2019-02-21T10:00:21.783Z,9.55
2019-02-21T10:01:21.781Z,9.59
2019-02-21T10:02:23.161Z,9.66
2019-02-21T10:03:21.770Z,9.73
2019-02-21T10:04:31.577Z,9.76
2019-02-21T10:05:21.761Z,10.02
2019-02-21T10:06:21.757Z,10.20
2019-02-21T10:07:21.753Z,10.28
2019-02-21T10:08:22.066Z,10.34
2019-02-21T10:09:21.746Z,10.61
2019-02-21T10:10:21.741Z,10.74
2019-02-21T10:11:21.737Z,11.17
2019-02-21T10:12:21.731Z,11.72
2019-02-21T10:13:21.727Z,11.91
2019-02-21T10:14:21.740Z,11.60
2019-02-21T10:15:21.720Z,11.30
2019-02-21T10:16:21.715Z,11.02
2019-02-21T10:17:21.712Z,10.96
2019-02-21T10:18:21.709Z,10.99
2019-02-21T10:19:21.708Z,10.79
2019-02-21T10:20:21.742Z,10.59
2019-02-21T10:21:21.701Z,10.49
2019-02-21T10:22:21.695Z,10.59
2019-02-21T10:23:24.170Z,10.71
2019-02-21T10:24:21.688Z,10.64
2019-02-21T10:25:23.116Z,10.68
2019-02-21T10:26:21.683Z,10.64
2019-02-21T10:27:21.680Z,10.63
2019-02-21T10:28:21.675Z,10.86
2019-02-21T10:29:21.672Z,10.92
2019-02-21T10:30:21.668Z,11.00
2019-02-21T10:31:21.666Z,11.00
2019-02-21T10:32:21.682Z,11.08
2019-02-21T10:33:21.667Z,10.96
2019-02-21T10:34:21.951Z,10.81
2019-02-21T10:35:21.653Z,10.89
2019-02-21T10:36:21.648Z,10.81
2019-02-21T10:37:21.644Z,10.71
2019-02-21T10:38:21.642Z,10.71
2019-02-21T10:39:21.644Z,10.86
2019-02-21T10:40:21.635Z,11.02
2019-02-21T10:41:21.633Z,11.07
2019-02-21T10:42:21.628Z,11.08
2019-02-21T10:43:21.625Z,11.15
2019-02-21T10:44:21.632Z,11.15
2019-02-21T10:45:21.629Z,11.30
2019-02-21T10:46:21.618Z,11.33
2019-02-21T10:47:21.610Z,11.43
2019-02-21T10:48:21.607Z,11.48
2019-02-21T10:49:21.605Z,11.57
2019-02-21T10:50:21.608Z,11.70
2019-02-21T10:51:21.599Z,11.84
2019-02-21T10:52:21.594Z,11.87
2019-02-21T10:53:21.595Z,11.78
2019-02-21T10:54:21.586Z,11.80
2019-02-21T10:55:21.585Z,12.02
2019-02-21T10:56:21.580Z,12.13
2019-02-21T10:57:21.578Z,12.25
2019-02-21T10:58:21.576Z,12.24
2019-02-21T10:59:21.573Z,12.31
2019-02-21T11:00:21.568Z,12.24
2019-02-21T11:01:21.565Z,12.27
2019-02-21T11:02:21.563Z,12.25
2019-02-21T11:03:21.560Z,12.57
2019-02-21T11:04:21.556Z,12.53
2019-02-21T11:05:21.554Z,12.55
2019-02-21T11:06:21.561Z,12.60
2019-02-21T11:07:21.548Z,12.43
2019-02-21T11:08:21.544Z,12.29
2019-02-21T11:09:21.544Z,12.28
2019-02-21T11:10:21.556Z,12.29
2019-02-21T11:11:21.538Z,12.29
2019-02-21T11:12:21.533Z,12.22
2019-02-21T11:13:21.531Z,12.17
2019-02-21T11:14:21.529Z,12.12
2019-02-21T11:15:21.526Z,12.29
2019-02-21T11:16:21.521Z,12.21
2019-02-21T11:17:21.520Z,12.31
2019-02-21T11:18:21.521Z,12.40
2019-02-21T11:19:21.516Z,12.45
2019-02-21T11:20:21.513Z,12.40
2019-02-21T11:21:21.512Z,12.53
2019-02-21T11:22:21.514Z,12.58
2019-02-21T11:23:21.505Z,12.42
2019-02-21T11:24:21.499Z,12.40
2019-02-21T11:25:21.499Z,12.32
2019-02-21T11:26:21.494Z,12.25
2019-02-21T11:27:21.494Z,12.25
2019-02-21T11:28:21.489Z,12.21
2019-02-21T11:29:21.491Z,12.07
2019-02-21T11:30:21.484Z,12.02
2019-02-21T11:31:21.481Z,12.10
2019-02-21T11:32:21.481Z,11.97
2019-02-21T11:33:21.476Z,11.95
2019-02-21T11:34:21.472Z,12.00
2019-02-21T11:35:21.468Z,12.04
2019-02-21T11:36:21.466Z,12.13
2019-02-21T11:37:21.463Z,12.45
2019-02-21T11:38:21.459Z,12.61
2019-02-21T11:39:21.459Z,12.86
2019-02-21T11:40:21.462Z,13.11
2019-02-21T11:41:21.457Z,12.97
2019-02-21T11:42:21.447Z,12.98
2019-02-21T11:43:21.446Z,12.97
2019-02-21T11:44:21.443Z,12.85
2019-02-21T11:45:21.446Z,12.85
2019-02-21T11:46:21.451Z,13.03
2019-02-21T11:47:21.436Z,13.08
2019-02-21T11:48:21.432Z,13.37
2019-02-21T11:49:21.429Z,13.52
2019-02-21T11:50:21.426Z,13.63
2019-02-21T11:51:21.424Z,13.65
2019-02-21T11:52:21.427Z,13.81
2019-02-21T11:53:21.419Z,13.68
2019-02-21T11:54:27.019Z,13.79
2019-02-21T11:55:21.418Z,13.75
2019-02-21T11:56:21.412Z,13.71
2019-02-21T11:57:21.411Z,13.37
2019-02-21T11:58:21.407Z,13.35
2019-02-21T11:59:21.406Z,13.23
2019-02-21T12:00:21.405Z,13.04
2019-02-21T12:01:21.405Z,13.00
2019-02-21T12:02:21.413Z,12.78
2019-02-21T12:03:21.506Z,12.93
2019-02-21T12:04:21.394Z,13.13
2019-02-21T12:05:30.478Z,12.98
2019-02-21T12:06:21.428Z,12.83
2019-02-21T12:07:21.389Z,12.82
2019-02-21T12:08:21.387Z,12.83
2019-02-21T12:09:21.385Z,12.76
2019-02-21T12:10:21.384Z,12.80
2019-02-21T12:11:21.380Z,12.83
2019-02-21T12:12:21.404Z,12.78
2019-02-21T12:13:21.375Z,12.82
2019-02-21T12:14:21.374Z,12.86
2019-02-21T12:15:21.374Z,12.97
2019-02-21T12:16:21.372Z,13.04
2019-02-21T12:17:21.367Z,13.16
2019-02-21T12:18:21.365Z,13.25
2019-02-21T12:19:21.365Z,13.08
2019-02-21T12:20:21.361Z,13.27
2019-02-21T12:21:21.359Z,13.25
2019-02-21T12:22:21.356Z,13.15
2019-02-21T12:23:21.490Z,13.38
2019-02-21T12:24:21.351Z,13.28
2019-02-21T12:25:21.350Z,13.23
2019-02-21T12:26:21.348Z,13.35
2019-02-21T12:27:21.345Z,13.23
2019-02-21T12:28:21.343Z,13.39
2019-02-21T12:29:21.342Z,13.30
2019-02-21T12:30:21.337Z,13.31
2019-02-21T12:31:21.337Z,13.44
2019-02-21T12:32:21.338Z,13.42
2019-02-21T12:33:21.344Z,13.63
2019-02-21T12:34:21.334Z,13.57
2019-02-21T12:35:29.319Z,13.37
2019-02-21T12:36:21.326Z,13.38
2019-02-21T12:37:21.328Z,13.33
2019-02-21T12:38:21.320Z,13.33
2019-02-21T12:39:21.320Z,13.31
2019-02-21T12:40:21.316Z,13.22
2019-02-21T12:41:21.314Z,13.28
2019-02-21T12:42:21.313Z,13.23
2019-02-21T12:43:21.311Z,13.38
2019-02-21T12:44:21.309Z,13.41
2019-02-21T12:45:21.306Z,13.23
2019-02-21T12:46:21.305Z,13.31
2019-02-21T12:47:21.302Z,13.28
2019-02-21T12:48:21.298Z,13.33
2019-02-21T12:49:21.297Z,13.35
2019-02-21T12:50:21.296Z,13.35
2019-02-21T12:51:21.295Z,13.35
2019-02-21T12:52:21.290Z,13.35
2019-02-21T12:53:21.287Z,13.35
2019-02-21T12:54:21.287Z,13.33
2019-02-21T12:55:28.097Z,13.28
2019-02-21T12:56:21.282Z,13.31
2019-02-21T12:57:21.279Z,13.33
2019-02-21T12:58:21.276Z,13.28
2019-02-21T12:59:21.276Z,13.37
2019-02-21T13:00:21.273Z,13.25
2019-02-21T13:01:21.270Z,13.39
2019-02-21T13:02:21.267Z,13.30
2019-02-21T13:03:21.266Z,13.28
2019-02-21T13:04:21.263Z,13.25
2019-02-21T13:05:21.262Z,13.18
2019-02-21T13:06:21.262Z,13.35
2019-02-21T13:07:21.257Z,13.30
2019-02-21T13:08:21.254Z,13.27
2019-02-21T13:09:21.250Z,13.31
2019-02-21T13:10:21.250Z,13.38
2019-02-21T13:11:21.247Z,13.37
2019-02-21T13:12:21.243Z,13.25